sensor_id;sensor_type;location;lat;lon;timestamp;temperature;humidity
15844;DHT22;50807;52.436;13.346;2023-03-24T00:00:09;14.90;97.90
15844;DHT22;50807;52.436;13.346;2023-03-24T00:00:44;14.90;97.90
15844;DHT22;50807;52.436;13.346;2023-03-24T00:01:18;14.90;97.90
15844;DHT22;50807;52.436;13.346;2023-03-24T00:01:51;14.90;97.90
15844;DHT22;50807;52.436;13.346;2023-03-24T00:02:23;14.90;97.90
15844;DHT22;50807;52.436;13.346;2023-03-24T00:02:58;14.90;97.90
15844;DHT22;50807;52.436;13.346;2023-03-24T00:03:32;14.90;97.90
15844;DHT22;50807;52.436;13.346;2023-03-24T00:04:04;14.90;97.90
15844;DHT22;50807;52.436;13.346;2023-03-24T00:04:36;14.90;97.90
15844;DHT22;50807;52.436;13.346;2023-03-24T00:05:14;14.90;97.90
15844;DHT22;50807;52.436;13.346;2023-03-24T00:05:54;14.90;97.90
15844;DHT22;50807;52.436;13.346;2023-03-24T00:06:28;14.90;98.00
15844;DHT22;50807;52.436;13.346;2023-03-24T00:07:04;14.90;97.90
15844;DHT22;50807;52.436;13.346;2023-03-24T00:07:38;14.90;97.90
15844;DHT22;50807;52.436;13.346;2023-03-24T00:08:16;14.90;97.90
15844;DHT22;50807;52.436;13.346;2023-03-24T00:08:48;14.90;97.90
15844;DHT22;50807;52.436;13.346;2023-03-24T00:09:22;14.90;97.90
15844;DHT22;50807;52.436;13.346;2023-03-24T00:09:56;14.90;97.90
15844;DHT22;50807;52.436;13.346;2023-03-24T00:10:28;14.90;97.90
15844;DHT22;50807;52.436;13.346;2023-03-24T00:11:06;14.90;97.90
15844;DHT22;50807;52.436;13.346;2023-03-24T00:11:38;14.90;97.90
15844;DHT22;50807;52.436;13.346;2023-03-24T00:12:11;14.90;97.90
15844;DHT22;50807;52.436;13.346;2023-03-24T00:12:49;14.90;97.90
15844;DHT22;50807;52.436;13.346;2023-03-24T00:13:21;14.90;97.90
15844;DHT22;50807;52.436;13.346;2023-03-24T00:13:54;14.90;97.90
15844;DHT22;50807;52.436;13.346;2023-03-24T00:14:28;14.90;97.90
15844;DHT22;50807;52.436;13.346;2023-03-24T00:15:00;14.90;97.90
15844;DHT22;50807;52.436;13.346;2023-03-24T00:15:38;14.90;97.90
15844;DHT22;50807;52.436;13.346;2023-03-24T00:16:12;14.90;97.90
15844;DHT22;50807;52.436;13.346;2023-03-24T00:16:49;14.90;97.90
15844;DHT22;50807;52.436;13.346;2023-03-24T00:17:22;14.90;97.90
15844;DHT22;50807;52.436;13.346;2023-03-24T00:17:59;14.90;97.90
15844;DHT22;50807;52.436;13.346;2023-03-24T00:18:31;14.90;97.90
15844;DHT22;50807;52.436;13.346;2023-03-24T00:19:03;14.90;97.90
15844;DHT22;50807;52.436;13.346;2023-03-24T00:19:36;14.90;97.90
15844;DHT22;50807;52.436;13.346;2023-03-24T00:20:10;14.90;97.90
15844;DHT22;50807;52.436;13.346;2023-03-24T00:20:45;14.90;98.00
15844;DHT22;50807;52.436;13.346;2023-03-24T00:21:19;14.90;98.00
15844;DHT22;50807;52.436;13.346;2023-03-24T00:21:51;14.90;98.00
15844;DHT22;50807;52.436;13.346;2023-03-24T00:22:26;14.90;97.90
15844;DHT22;50807;52.436;13.346;2023-03-24T00:23:00;14.90;97.90
15844;DHT22;50807;52.436;13.346;2023-03-24T00:23:32;14.90;98.10
15844;DHT22;50807;52.436;13.346;2023-03-24T00:24:05;14.90;97.90
15844;DHT22;50807;52.436;13.346;2023-03-24T00:24:39;14.90;98.00
15844;DHT22;50807;52.436;13.346;2023-03-24T00:25:13;14.90;98.00
15844;DHT22;50807;52.436;13.346;2023-03-24T00:25:45;14.90;98.00
15844;DHT22;50807;52.436;13.346;2023-03-24T00:26:20;14.90;98.00
15844;DHT22;50807;52.436;13.346;2023-03-24T00:26:55;14.90;98.00
15844;DHT22;50807;52.436;13.346;2023-03-24T00:27:27;14.90;98.00
15844;DHT22;50807;52.436;13.346;2023-03-24T00:28:00;14.90;97.90
15844;DHT22;50807;52.436;13.346;2023-03-24T00:28:34;14.90;98.00
15844;DHT22;50807;52.436;13.346;2023-03-24T00:29:09;14.90;98.00
15844;DHT22;50807;52.436;13.346;2023-03-24T00:29:43;14.90;98.00
15844;DHT22;50807;52.436;13.346;2023-03-24T00:30:16;14.90;98.00
15844;DHT22;50807;52.436;13.346;2023-03-24T00:30:51;14.90;98.00
15844;DHT22;50807;52.436;13.346;2023-03-24T00:31:24;14.90;98.00
15844;DHT22;50807;52.436;13.346;2023-03-24T00:31:56;14.90;98.00
15844;DHT22;50807;52.436;13.346;2023-03-24T00:32:29;14.90;98.00
15844;DHT22;50807;52.436;13.346;2023-03-24T00:33:01;14.90;98.00
15844;DHT22;50807;52.436;13.346;2023-03-24T00:33:34;14.90;98.00
15844;DHT22;50807;52.436;13.346;2023-03-24T00:34:10;14.90;98.00
15844;DHT22;50807;52.436;13.346;2023-03-24T00:34:43;14.90;98.00
15844;DHT22;50807;52.436;13.346;2023-03-24T00:35:15;14.90;98.00
15844;DHT22;50807;52.436;13.346;2023-03-24T00:35:49;14.90;98.00
15844;DHT22;50807;52.436;13.346;2023-03-24T00:36:27;14.90;98.00
15844;DHT22;50807;52.436;13.346;2023-03-24T00:36:59;14.80;97.90
15844;DHT22;50807;52.436;13.346;2023-03-24T00:37:32;14.90;98.00
15844;DHT22;50807;52.436;13.346;2023-03-24T00:38:04;14.80;97.90
15844;DHT22;50807;52.436;13.346;2023-03-24T00:38:36;14.90;98.00
15844;DHT22;50807;52.436;13.346;2023-03-24T00:39:10;14.80;98.00
15844;DHT22;50807;52.436;13.346;2023-03-24T00:39:41;14.80;97.90
15844;DHT22;50807;52.436;13.346;2023-03-24T00:40:16;14.80;98.00
15844;DHT22;50807;52.436;13.346;2023-03-24T00:40:51;14.80;98.00
15844;DHT22;50807;52.436;13.346;2023-03-24T00:41:23;14.80;98.00
15844;DHT22;50807;52.436;13.346;2023-03-24T00:41:56;14.80;98.00
15844;DHT22;50807;52.436;13.346;2023-03-24T00:42:32;14.80;98.00
15844;DHT22;50807;52.436;13.346;2023-03-24T00:43:03;14.80;98.00
15844;DHT22;50807;52.436;13.346;2023-03-24T00:43:35;14.80;98.00
15844;DHT22;50807;52.436;13.346;2023-03-24T00:44:08;14.80;98.00
15844;DHT22;50807;52.436;13.346;2023-03-24T00:44:47;14.80;98.00
15844;DHT22;50807;52.436;13.346;2023-03-24T00:45:20;14.80;98.00
15844;DHT22;50807;52.436;13.346;2023-03-24T00:45:57;14.80;98.00
15844;DHT22;50807;52.436;13.346;2023-03-24T00:46:31;14.80;98.00
15844;DHT22;50807;52.436;13.346;2023-03-24T00:47:03;14.80;98.30
15844;DHT22;50807;52.436;13.346;2023-03-24T00:47:36;14.80;98.00
15844;DHT22;50807;52.436;13.346;2023-03-24T00:48:08;14.80;98.00
15844;DHT22;50807;52.436;13.346;2023-03-24T00:48:41;14.80;98.00
15844;DHT22;50807;52.436;13.346;2023-03-24T00:49:12;14.80;98.00
15844;DHT22;50807;52.436;13.346;2023-03-24T00:49:47;14.80;98.00
15844;DHT22;50807;52.436;13.346;2023-03-24T00:50:25;14.80;98.00
15844;DHT22;50807;52.436;13.346;2023-03-24T00:51:00;14.80;98.10
15844;DHT22;50807;52.436;13.346;2023-03-24T00:51:37;14.80;98.10
15844;DHT22;50807;52.436;13.346;2023-03-24T00:52:11;14.80;98.10
15844;DHT22;50807;52.436;13.346;2023-03-24T00:52:46;14.80;98.10
15844;DHT22;50807;52.436;13.346;2023-03-24T00:53:20;14.80;98.40
15844;DHT22;50807;52.436;13.346;2023-03-24T00:53:53;14.80;98.10
15844;DHT22;50807;52.436;13.346;2023-03-24T00:54:32;14.80;98.10
15844;DHT22;50807;52.436;13.346;2023-03-24T00:55:06;14.80;98.10
15844;DHT22;50807;52.436;13.346;2023-03-24T00:55:40;14.80;98.10
15844;DHT22;50807;52.436;13.346;2023-03-24T00:56:15;14.80;98.10
15844;DHT22;50807;52.436;13.346;2023-03-24T00:56:49;14.80;98.10
15844;DHT22;50807;52.436;13.346;2023-03-24T00:57:25;14.80;98.10
15844;DHT22;50807;52.436;13.346;2023-03-24T00:57:59;14.80;98.10
15844;DHT22;50807;52.436;13.346;2023-03-24T00:58:32;14.80;98.10
15844;DHT22;50807;52.436;13.346;2023-03-24T00:59:04;14.80;98.10
15844;DHT22;50807;52.436;13.346;2023-03-24T00:59:43;14.80;98.10
15844;DHT22;50807;52.436;13.346;2023-03-24T01:00:23;14.80;98.10
15844;DHT22;50807;52.436;13.346;2023-03-24T01:00:57;14.80;98.10
15844;DHT22;50807;52.436;13.346;2023-03-24T01:01:31;14.80;98.10
15844;DHT22;50807;52.436;13.346;2023-03-24T01:02:08;14.80;98.10
15844;DHT22;50807;52.436;13.346;2023-03-24T01:02:47;14.80;98.10
15844;DHT22;50807;52.436;13.346;2023-03-24T01:03:23;14.80;98.40
15844;DHT22;50807;52.436;13.346;2023-03-24T01:03:58;14.80;98.10
15844;DHT22;50807;52.436;13.346;2023-03-24T01:04:31;14.80;98.10
15844;DHT22;50807;52.436;13.346;2023-03-24T01:05:06;14.80;98.10
15844;DHT22;50807;52.436;13.346;2023-03-24T01:05:41;14.80;98.10
15844;DHT22;50807;52.436;13.346;2023-03-24T01:06:18;14.80;98.10
15844;DHT22;50807;52.436;13.346;2023-03-24T01:06:52;14.80;98.10
15844;DHT22;50807;52.436;13.346;2023-03-24T01:07:28;14.80;98.10
15844;DHT22;50807;52.436;13.346;2023-03-24T01:08:00;14.80;98.10
15844;DHT22;50807;52.436;13.346;2023-03-24T01:08:33;14.80;98.10
15844;DHT22;50807;52.436;13.346;2023-03-24T01:09:06;14.80;98.10
15844;DHT22;50807;52.436;13.346;2023-03-24T01:09:38;14.80;98.10
15844;DHT22;50807;52.436;13.346;2023-03-24T01:10:12;14.80;98.20
15844;DHT22;50807;52.436;13.346;2023-03-24T01:10:48;14.80;98.20
15844;DHT22;50807;52.436;13.346;2023-03-24T01:11:26;14.80;98.20
15844;DHT22;50807;52.436;13.346;2023-03-24T01:11:58;14.80;98.20
15844;DHT22;50807;52.436;13.346;2023-03-24T01:12:32;14.80;98.20
15844;DHT22;50807;52.436;13.346;2023-03-24T01:13:08;14.80;98.20
15844;DHT22;50807;52.436;13.346;2023-03-24T01:13:41;14.80;98.20
15844;DHT22;50807;52.436;13.346;2023-03-24T01:14:15;14.80;98.20
15844;DHT22;50807;52.436;13.346;2023-03-24T01:14:47;14.80;98.20
15844;DHT22;50807;52.436;13.346;2023-03-24T01:15:21;14.80;98.20
15844;DHT22;50807;52.436;13.346;2023-03-24T01:16:01;14.80;98.20
15844;DHT22;50807;52.436;13.346;2023-03-24T01:16:36;14.80;98.20
15844;DHT22;50807;52.436;13.346;2023-03-24T01:17:08;14.80;98.20
15844;DHT22;50807;52.436;13.346;2023-03-24T01:17:41;14.80;98.20
15844;DHT22;50807;52.436;13.346;2023-03-24T01:18:15;14.80;98.20
15844;DHT22;50807;52.436;13.346;2023-03-24T01:18:48;14.80;98.30
15844;DHT22;50807;52.436;13.346;2023-03-24T01:19:20;14.80;98.30
15844;DHT22;50807;52.436;13.346;2023-03-24T01:19:55;14.80;98.30
15844;DHT22;50807;52.436;13.346;2023-03-24T01:20:28;14.80;98.30
15844;DHT22;50807;52.436;13.346;2023-03-24T01:21:02;14.80;98.30
15844;DHT22;50807;52.436;13.346;2023-03-24T01:21:34;14.80;98.60
15844;DHT22;50807;52.436;13.346;2023-03-24T01:22:07;14.80;98.30
15844;DHT22;50807;52.436;13.346;2023-03-24T01:22:41;14.80;98.30
15844;DHT22;50807;52.436;13.346;2023-03-24T01:23:16;14.80;98.30
15844;DHT22;50807;52.436;13.346;2023-03-24T01:23:50;14.80;98.30
15844;DHT22;50807;52.436;13.346;2023-03-24T01:24:22;14.80;98.30
15844;DHT22;50807;52.436;13.346;2023-03-24T01:24:55;14.80;98.30
15844;DHT22;50807;52.436;13.346;2023-03-24T01:25:31;14.80;98.30
15844;DHT22;50807;52.436;13.346;2023-03-24T01:26:09;14.80;98.40
15844;DHT22;50807;52.436;13.346;2023-03-24T01:26:42;14.80;98.60
15844;DHT22;50807;52.436;13.346;2023-03-24T01:27:15;14.80;98.40
15844;DHT22;50807;52.436;13.346;2023-03-24T01:27:48;14.80;98.50
15844;DHT22;50807;52.436;13.346;2023-03-24T01:28:27;14.80;98.40
15844;DHT22;50807;52.436;13.346;2023-03-24T01:28:58;14.80;98.40
15844;DHT22;50807;52.436;13.346;2023-03-24T01:29:31;14.80;98.40
15844;DHT22;50807;52.436;13.346;2023-03-24T01:30:05;14.80;98.40
15844;DHT22;50807;52.436;13.346;2023-03-24T01:30:39;14.80;98.40
15844;DHT22;50807;52.436;13.346;2023-03-24T01:31:11;14.80;98.40
15844;DHT22;50807;52.436;13.346;2023-03-24T01:31:44;14.80;98.40
15844;DHT22;50807;52.436;13.346;2023-03-24T01:32:16;14.80;98.40
15844;DHT22;50807;52.436;13.346;2023-03-24T01:32:48;14.80;98.40
15844;DHT22;50807;52.436;13.346;2023-03-24T01:33:20;14.80;98.40
15844;DHT22;50807;52.436;13.346;2023-03-24T01:33:53;14.80;98.40
15844;DHT22;50807;52.436;13.346;2023-03-24T01:34:25;14.80;98.40
15844;DHT22;50807;52.436;13.346;2023-03-24T01:34:57;14.80;98.50
15844;DHT22;50807;52.436;13.346;2023-03-24T01:35:30;14.80;98.50
15844;DHT22;50807;52.436;13.346;2023-03-24T01:36:02;14.80;98.50
15844;DHT22;50807;52.436;13.346;2023-03-24T01:36:35;14.80;98.50
15844;DHT22;50807;52.436;13.346;2023-03-24T01:37:08;14.80;98.50
15844;DHT22;50807;52.436;13.346;2023-03-24T01:37:40;14.80;98.50
15844;DHT22;50807;52.436;13.346;2023-03-24T01:38:13;14.80;98.50
15844;DHT22;50807;52.436;13.346;2023-03-24T01:38:47;14.80;98.50
15844;DHT22;50807;52.436;13.346;2023-03-24T01:39:19;14.80;98.60
15844;DHT22;50807;52.436;13.346;2023-03-24T01:39:51;14.80;98.60
15844;DHT22;50807;52.436;13.346;2023-03-24T01:40:26;14.80;98.60
15844;DHT22;50807;52.436;13.346;2023-03-24T01:41:00;14.80;98.60
15844;DHT22;50807;52.436;13.346;2023-03-24T01:41:36;14.80;98.60
15844;DHT22;50807;52.436;13.346;2023-03-24T01:42:16;14.80;98.60
15844;DHT22;50807;52.436;13.346;2023-03-24T01:42:50;14.80;98.60
15844;DHT22;50807;52.436;13.346;2023-03-24T01:43:24;14.80;98.60
15844;DHT22;50807;52.436;13.346;2023-03-24T01:44:00;14.80;98.60
15844;DHT22;50807;52.436;13.346;2023-03-24T01:44:49;14.80;98.60
15844;DHT22;50807;52.436;13.346;2023-03-24T01:45:44;14.80;98.60
15844;DHT22;50807;52.436;13.346;2023-03-24T01:46:30;14.80;98.60
15844;DHT22;50807;52.436;13.346;2023-03-24T01:47:06;14.80;98.50
15844;DHT22;50807;52.436;13.346;2023-03-24T01:47:38;14.80;98.50
15844;DHT22;50807;52.436;13.346;2023-03-24T01:48:15;14.80;98.50
15844;DHT22;50807;52.436;13.346;2023-03-24T01:48:54;14.80;98.50
15844;DHT22;50807;52.436;13.346;2023-03-24T01:49:33;14.80;98.50
15844;DHT22;50807;52.436;13.346;2023-03-24T01:50:08;14.80;98.50
15844;DHT22;50807;52.436;13.346;2023-03-24T01:50:41;14.80;98.50
15844;DHT22;50807;52.436;13.346;2023-03-24T01:51:17;14.80;98.50
15844;DHT22;50807;52.436;13.346;2023-03-24T01:51:53;14.80;98.50
15844;DHT22;50807;52.436;13.346;2023-03-24T01:52:30;14.80;98.50
15844;DHT22;50807;52.436;13.346;2023-03-24T01:53:04;14.80;98.50
15844;DHT22;50807;52.436;13.346;2023-03-24T01:53:41;14.80;98.50
15844;DHT22;50807;52.436;13.346;2023-03-24T01:54:18;14.80;98.60
15844;DHT22;50807;52.436;13.346;2023-03-24T01:54:54;14.80;98.60
15844;DHT22;50807;52.436;13.346;2023-03-24T01:55:30;14.80;98.60
15844;DHT22;50807;52.436;13.346;2023-03-24T01:56:05;14.80;98.60
15844;DHT22;50807;52.436;13.346;2023-03-24T01:56:49;14.80;98.60
15844;DHT22;50807;52.436;13.346;2023-03-24T01:57:28;14.80;98.60
15844;DHT22;50807;52.436;13.346;2023-03-24T01:58:02;14.80;98.60
15844;DHT22;50807;52.436;13.346;2023-03-24T01:58:35;14.80;98.60
15844;DHT22;50807;52.436;13.346;2023-03-24T01:59:10;14.80;98.60
15844;DHT22;50807;52.436;13.346;2023-03-24T01:59:47;14.80;98.60
15844;DHT22;50807;52.436;13.346;2023-03-24T02:00:21;14.80;98.70
15844;DHT22;50807;52.436;13.346;2023-03-24T02:00:52;14.80;98.70
15844;DHT22;50807;52.436;13.346;2023-03-24T02:01:23;14.80;98.70
15844;DHT22;50807;52.436;13.346;2023-03-24T02:01:59;14.80;98.70
15844;DHT22;50807;52.436;13.346;2023-03-24T02:02:32;14.80;98.70
15844;DHT22;50807;52.436;13.346;2023-03-24T02:03:07;14.80;98.80
15844;DHT22;50807;52.436;13.346;2023-03-24T02:03:44;14.80;98.80
15844;DHT22;50807;52.436;13.346;2023-03-24T02:04:15;14.80;98.80
15844;DHT22;50807;52.436;13.346;2023-03-24T02:04:50;14.80;98.80
15844;DHT22;50807;52.436;13.346;2023-03-24T02:05:26;14.80;98.80
15844;DHT22;50807;52.436;13.346;2023-03-24T02:06:01;14.80;98.80
15844;DHT22;50807;52.436;13.346;2023-03-24T02:06:35;14.80;98.80
15844;DHT22;50807;52.436;13.346;2023-03-24T02:07:14;14.80;98.80
15844;DHT22;50807;52.436;13.346;2023-03-24T02:07:50;14.80;98.90
15844;DHT22;50807;52.436;13.346;2023-03-24T02:08:29;14.80;98.90
15844;DHT22;50807;52.436;13.346;2023-03-24T02:09:03;14.80;98.90
15844;DHT22;50807;52.436;13.346;2023-03-24T02:09:34;14.80;98.90
15844;DHT22;50807;52.436;13.346;2023-03-24T02:10:08;14.90;98.90
15844;DHT22;50807;52.436;13.346;2023-03-24T02:10:43;14.90;98.90
15844;DHT22;50807;52.436;13.346;2023-03-24T02:11:15;14.90;98.90
15844;DHT22;50807;52.436;13.346;2023-03-24T02:11:47;14.90;98.90
15844;DHT22;50807;52.436;13.346;2023-03-24T02:12:19;14.90;98.90
15844;DHT22;50807;52.436;13.346;2023-03-24T02:12:50;14.90;99.00
15844;DHT22;50807;52.436;13.346;2023-03-24T02:13:21;14.90;98.90
15844;DHT22;50807;52.436;13.346;2023-03-24T02:13:53;14.90;99.00
15844;DHT22;50807;52.436;13.346;2023-03-24T02:14:25;14.90;99.00
15844;DHT22;50807;52.436;13.346;2023-03-24T02:14:56;14.90;99.00
15844;DHT22;50807;52.436;13.346;2023-03-24T02:15:28;14.90;99.00
15844;DHT22;50807;52.436;13.346;2023-03-24T02:16:21;14.90;99.00
15844;DHT22;50807;52.436;13.346;2023-03-24T02:18:15;14.90;99.00
15844;DHT22;50807;52.436;13.346;2023-03-24T02:19:03;15.00;98.90
15844;DHT22;50807;52.436;13.346;2023-03-24T02:20:30;15.00;98.90
15844;DHT22;50807;52.436;13.346;2023-03-24T02:21:48;15.00;98.90
15844;DHT22;50807;52.436;13.346;2023-03-24T02:24:34;15.10;98.70
15844;DHT22;50807;52.436;13.346;2023-03-24T02:27:08;15.10;98.50
15844;DHT22;50807;52.436;13.346;2023-03-24T02:28:06;15.20;98.40
15844;DHT22;50807;52.436;13.346;2023-03-24T02:28:57;15.10;98.30
15844;DHT22;50807;52.436;13.346;2023-03-24T02:30:10;15.10;98.30
15844;DHT22;50807;52.436;13.346;2023-03-24T02:31:18;15.20;98.40
15844;DHT22;50807;52.436;13.346;2023-03-24T02:32:19;15.20;98.40
15844;DHT22;50807;52.436;13.346;2023-03-24T02:33:43;15.20;98.40
15844;DHT22;50807;52.436;13.346;2023-03-24T02:34:54;15.20;98.40
15844;DHT22;50807;52.436;13.346;2023-03-24T02:37:37;15.20;98.30
15844;DHT22;50807;52.436;13.346;2023-03-24T02:38:43;15.20;98.30
15844;DHT22;50807;52.436;13.346;2023-03-24T02:39:45;15.20;98.30
15844;DHT22;50807;52.436;13.346;2023-03-24T02:40:36;15.20;98.20
15844;DHT22;50807;52.436;13.346;2023-03-24T02:41:20;15.20;98.30
15844;DHT22;50807;52.436;13.346;2023-03-24T02:42:03;15.20;98.30
15844;DHT22;50807;52.436;13.346;2023-03-24T02:42:47;15.20;98.30
15844;DHT22;50807;52.436;13.346;2023-03-24T02:43:35;15.20;98.30
15844;DHT22;50807;52.436;13.346;2023-03-24T02:44:19;15.20;98.40
15844;DHT22;50807;52.436;13.346;2023-03-24T02:45:09;15.20;98.40
15844;DHT22;50807;52.436;13.346;2023-03-24T02:45:59;15.20;98.50
15844;DHT22;50807;52.436;13.346;2023-03-24T02:46:44;15.20;98.50
15844;DHT22;50807;52.436;13.346;2023-03-24T02:47:23;15.20;98.50
15844;DHT22;50807;52.436;13.346;2023-03-24T02:48:10;15.20;98.60
15844;DHT22;50807;52.436;13.346;2023-03-24T02:49:06;15.20;98.60
15844;DHT22;50807;52.436;13.346;2023-03-24T02:49:50;15.20;98.60
15844;DHT22;50807;52.436;13.346;2023-03-24T02:50:29;15.20;98.60
15844;DHT22;50807;52.436;13.346;2023-03-24T02:51:10;15.20;98.60
15844;DHT22;50807;52.436;13.346;2023-03-24T02:51:50;15.10;98.60
15844;DHT22;50807;52.436;13.346;2023-03-24T02:52:32;15.20;98.70
15844;DHT22;50807;52.436;13.346;2023-03-24T02:53:14;15.20;98.70
15844;DHT22;50807;52.436;13.346;2023-03-24T02:53:54;15.20;98.80
15844;DHT22;50807;52.436;13.346;2023-03-24T02:54:40;15.20;98.80
15844;DHT22;50807;52.436;13.346;2023-03-24T02:55:20;15.10;98.90
15844;DHT22;50807;52.436;13.346;2023-03-24T02:55:55;15.10;98.90
15844;DHT22;50807;52.436;13.346;2023-03-24T02:56:35;15.10;99.00
15844;DHT22;50807;52.436;13.346;2023-03-24T02:57:15;15.10;99.10
15844;DHT22;50807;52.436;13.346;2023-03-24T02:57:54;15.10;99.10
15844;DHT22;50807;52.436;13.346;2023-03-24T02:58:34;15.00;99.10
15844;DHT22;50807;52.436;13.346;2023-03-24T02:59:14;15.00;99.20
15844;DHT22;50807;52.436;13.346;2023-03-24T02:59:53;15.00;99.30
15844;DHT22;50807;52.436;13.346;2023-03-24T03:00:30;15.00;99.30
15844;DHT22;50807;52.436;13.346;2023-03-24T03:01:07;15.00;99.30
15844;DHT22;50807;52.436;13.346;2023-03-24T03:01:46;15.00;99.40
15844;DHT22;50807;52.436;13.346;2023-03-24T03:02:26;15.00;99.40
15844;DHT22;50807;52.436;13.346;2023-03-24T03:03:07;14.90;99.50
15844;DHT22;50807;52.436;13.346;2023-03-24T03:03:44;14.90;99.60
15844;DHT22;50807;52.436;13.346;2023-03-24T03:04:23;14.90;99.60
15844;DHT22;50807;52.436;13.346;2023-03-24T03:05:01;14.90;99.70
15844;DHT22;50807;52.436;13.346;2023-03-24T03:05:42;14.90;99.80
15844;DHT22;50807;52.436;13.346;2023-03-24T03:06:19;14.90;99.90
15844;DHT22;50807;52.436;13.346;2023-03-24T03:06:57;14.80;99.80
15844;DHT22;50807;52.436;13.346;2023-03-24T03:07:36;14.90;99.80
15844;DHT22;50807;52.436;13.346;2023-03-24T03:08:11;14.90;99.80
15844;DHT22;50807;52.436;13.346;2023-03-24T03:08:44;14.80;99.80
15844;DHT22;50807;52.436;13.346;2023-03-24T03:09:18;14.80;99.90
15844;DHT22;50807;52.436;13.346;2023-03-24T03:09:56;14.80;99.90
15844;DHT22;50807;52.436;13.346;2023-03-24T03:10:35;14.80;99.90
15844;DHT22;50807;52.436;13.346;2023-03-24T03:11:12;14.80;99.90
15844;DHT22;50807;52.436;13.346;2023-03-24T03:11:48;14.80;99.90
15844;DHT22;50807;52.436;13.346;2023-03-24T03:12:24;14.80;99.90
15844;DHT22;50807;52.436;13.346;2023-03-24T03:13:05;14.80;99.90
15844;DHT22;50807;52.436;13.346;2023-03-24T03:13:43;14.80;99.90
15844;DHT22;50807;52.436;13.346;2023-03-24T03:14:23;14.80;99.90
15844;DHT22;50807;52.436;13.346;2023-03-24T03:15:02;14.80;99.90
15844;DHT22;50807;52.436;13.346;2023-03-24T03:15:38;14.80;99.90
15844;DHT22;50807;52.436;13.346;2023-03-24T03:16:18;14.80;99.90
15844;DHT22;50807;52.436;13.346;2023-03-24T03:16:58;14.80;99.90
15844;DHT22;50807;52.436;13.346;2023-03-24T03:17:37;14.80;99.90
15844;DHT22;50807;52.436;13.346;2023-03-24T03:18:16;14.80;99.90
15844;DHT22;50807;52.436;13.346;2023-03-24T03:18:55;14.80;99.90
15844;DHT22;50807;52.436;13.346;2023-03-24T03:19:32;14.80;99.90
15844;DHT22;50807;52.436;13.346;2023-03-24T03:20:09;14.80;99.90
15844;DHT22;50807;52.436;13.346;2023-03-24T03:20:46;14.80;99.90
15844;DHT22;50807;52.436;13.346;2023-03-24T03:21:25;14.70;99.90
15844;DHT22;50807;52.436;13.346;2023-03-24T03:22:03;14.80;99.90
15844;DHT22;50807;52.436;13.346;2023-03-24T03:22:44;14.80;99.90
15844;DHT22;50807;52.436;13.346;2023-03-24T03:23:23;14.80;99.90
15844;DHT22;50807;52.436;13.346;2023-03-24T03:24:08;14.70;99.90
15844;DHT22;50807;52.436;13.346;2023-03-24T03:24:47;14.80;99.90
15844;DHT22;50807;52.436;13.346;2023-03-24T03:25:26;14.80;99.90
15844;DHT22;50807;52.436;13.346;2023-03-24T03:26:03;14.70;99.90
15844;DHT22;50807;52.436;13.346;2023-03-24T03:26:42;14.80;99.90
15844;DHT22;50807;52.436;13.346;2023-03-24T03:27:17;14.70;99.90
15844;DHT22;50807;52.436;13.346;2023-03-24T03:27:52;14.70;99.90
15844;DHT22;50807;52.436;13.346;2023-03-24T03:28:27;14.70;99.90
15844;DHT22;50807;52.436;13.346;2023-03-24T03:29:04;14.70;99.90
15844;DHT22;50807;52.436;13.346;2023-03-24T03:29:45;14.70;99.90
15844;DHT22;50807;52.436;13.346;2023-03-24T03:30:23;14.70;99.90
15844;DHT22;50807;52.436;13.346;2023-03-24T03:31:01;14.70;99.90
15844;DHT22;50807;52.436;13.346;2023-03-24T03:31:40;14.70;99.90
15844;DHT22;50807;52.436;13.346;2023-03-24T03:32:19;14.70;99.90
15844;DHT22;50807;52.436;13.346;2023-03-24T03:33:03;14.70;99.90
15844;DHT22;50807;52.436;13.346;2023-03-24T03:33:41;14.70;99.90
15844;DHT22;50807;52.436;13.346;2023-03-24T03:34:25;14.70;99.90
15844;DHT22;50807;52.436;13.346;2023-03-24T03:35:08;14.70;99.90
15844;DHT22;50807;52.436;13.346;2023-03-24T03:35:48;14.70;99.90
15844;DHT22;50807;52.436;13.346;2023-03-24T03:36:25;14.70;99.90
15844;DHT22;50807;52.436;13.346;2023-03-24T03:37:03;14.70;99.90
15844;DHT22;50807;52.436;13.346;2023-03-24T03:37:43;14.70;99.90
15844;DHT22;50807;52.436;13.346;2023-03-24T03:38:23;14.70;99.90
15844;DHT22;50807;52.436;13.346;2023-03-24T03:39:04;14.70;99.90
15844;DHT22;50807;52.436;13.346;2023-03-24T03:39:45;14.70;99.90
15844;DHT22;50807;52.436;13.346;2023-03-24T03:40:24;14.70;99.90
15844;DHT22;50807;52.436;13.346;2023-03-24T03:41:03;14.80;99.90
15844;DHT22;50807;52.436;13.346;2023-03-24T03:41:35;14.70;99.90
15844;DHT22;50807;52.436;13.346;2023-03-24T03:42:09;14.80;99.90
15844;DHT22;50807;52.436;13.346;2023-03-24T03:42:40;14.80;99.90
15844;DHT22;50807;52.436;13.346;2023-03-24T03:43:11;14.80;99.90
15844;DHT22;50807;52.436;13.346;2023-03-24T03:43:42;14.80;99.90
15844;DHT22;50807;52.436;13.346;2023-03-24T03:44:14;14.80;99.90
15844;DHT22;50807;52.436;13.346;2023-03-24T03:44:45;14.80;99.90
15844;DHT22;50807;52.436;13.346;2023-03-24T03:45:17;14.70;99.90
15844;DHT22;50807;52.436;13.346;2023-03-24T03:45:49;14.80;99.90
15844;DHT22;50807;52.436;13.346;2023-03-24T03:46:20;14.80;99.90
15844;DHT22;50807;52.436;13.346;2023-03-24T03:46:51;14.80;99.90
15844;DHT22;50807;52.436;13.346;2023-03-24T03:47:24;14.70;99.90
15844;DHT22;50807;52.436;13.346;2023-03-24T03:47:55;14.70;99.90
15844;DHT22;50807;52.436;13.346;2023-03-24T03:48:27;14.70;99.90
15844;DHT22;50807;52.436;13.346;2023-03-24T03:48:58;14.80;99.90
15844;DHT22;50807;52.436;13.346;2023-03-24T03:49:31;14.80;99.90
15844;DHT22;50807;52.436;13.346;2023-03-24T03:50:02;14.80;99.90
15844;DHT22;50807;52.436;13.346;2023-03-24T03:50:36;14.70;99.90
15844;DHT22;50807;52.436;13.346;2023-03-24T03:51:09;14.80;99.90
15844;DHT22;50807;52.436;13.346;2023-03-24T03:51:40;14.80;99.90
15844;DHT22;50807;52.436;13.346;2023-03-24T03:52:11;14.80;99.90
15844;DHT22;50807;52.436;13.346;2023-03-24T03:52:45;14.80;99.90
15844;DHT22;50807;52.436;13.346;2023-03-24T03:53:18;14.80;99.90
15844;DHT22;50807;52.436;13.346;2023-03-24T03:53:54;14.80;99.90
15844;DHT22;50807;52.436;13.346;2023-03-24T03:54:29;14.80;99.90
15844;DHT22;50807;52.436;13.346;2023-03-24T03:55:02;14.80;99.90
15844;DHT22;50807;52.436;13.346;2023-03-24T03:55:35;14.80;99.90